createdAt,value
2022-09-30T00:01:55.452Z,14.10
2022-09-30T00:04:26.716Z,14.00
2022-09-30T00:06:54.375Z,14.00
2022-09-30T00:09:21.910Z,14.00
2022-09-30T00:11:53.754Z,14.00
2022-09-30T00:14:23.331Z,14.00
2022-09-30T00:16:50.291Z,13.80
2022-09-30T00:19:17.551Z,13.90
2022-09-30T00:21:44.711Z,14.00
2022-09-30T00:24:16.261Z,14.00
2022-09-30T00:26:45.324Z,14.00
2022-09-30T00:29:14.449Z,13.80
2022-09-30T00:31:41.622Z,13.90
2022-09-30T00:34:08.814Z,13.90
2022-09-30T00:37:02.957Z,13.90
2022-09-30T00:39:30.380Z,13.90
2022-09-30T00:42:04.334Z,13.90
2022-09-30T00:44:53.989Z,13.90
2022-09-30T00:47:49.978Z,13.80
2022-09-30T00:50:34.746Z,13.90
2022-09-30T00:53:20.552Z,13.90
2022-09-30T00:56:09.466Z,13.90
2022-09-30T00:59:24.157Z,13.90
2022-09-30T01:01:51.953Z,13.80
2022-09-30T01:04:26.309Z,13.90
2022-09-30T01:06:53.718Z,13.80
2022-09-30T01:09:20.975Z,13.90
2022-09-30T01:11:48.425Z,13.80
2022-09-30T01:14:25.015Z,13.80
2022-09-30T01:17:44.843Z,13.90
2022-09-30T01:20:49.077Z,13.80
2022-09-30T01:23:24.855Z,13.80
2022-09-30T01:26:26.726Z,13.80
2022-09-30T01:29:18.475Z,13.80
2022-09-30T01:31:54.328Z,13.70
2022-09-30T01:35:01.718Z,13.60
2022-09-30T01:37:49.437Z,13.70
2022-09-30T01:41:06.884Z,13.70
2022-09-30T01:43:47.729Z,13.70
2022-09-30T01:46:51.799Z,13.70
2022-09-30T01:49:41.024Z,13.70
2022-09-30T01:52:25.884Z,13.70
2022-09-30T01:55:21.198Z,13.60
2022-09-30T01:58:22.072Z,13.70
2022-09-30T02:00:56.055Z,13.70
2022-09-30T02:03:37.583Z,13.70
2022-09-30T02:06:32.482Z,13.60
2022-09-30T02:09:14.780Z,13.60
2022-09-30T02:11:47.378Z,13.60
2022-09-30T02:14:34.189Z,13.60
2022-09-30T02:17:34.946Z,13.60
2022-09-30T02:20:10.920Z,13.60
2022-09-30T02:22:47.089Z,13.60
2022-09-30T02:25:27.484Z,13.70
2022-09-30T02:28:05.189Z,13.70
2022-09-30T02:30:37.287Z,13.70
2022-09-30T02:33:12.644Z,13.60
2022-09-30T02:35:50.922Z,13.60
2022-09-30T02:38:21.999Z,13.60
2022-09-30T02:40:58.111Z,13.60
2022-09-30T02:43:27.625Z,13.60
2022-09-30T02:46:12.609Z,13.60
2022-09-30T02:49:00.400Z,13.60
2022-09-30T02:51:36.009Z,13.60
2022-09-30T02:55:20.757Z,13.60
2022-09-30T02:58:11.335Z,13.50
2022-09-30T03:00:40.792Z,13.50
2022-09-30T03:03:26.890Z,13.50
2022-09-30T03:05:53.925Z,13.50
2022-09-30T03:08:20.808Z,13.50
2022-09-30T03:10:51.915Z,13.50
2022-09-30T03:14:03.881Z,13.50
2022-09-30T03:16:42.776Z,13.50
2022-09-30T03:19:20.682Z,13.50
2022-09-30T03:22:12.750Z,13.50
2022-09-30T03:25:06.685Z,13.50
2022-09-30T03:28:08.530Z,13.40
2022-09-30T03:30:57.568Z,13.50
2022-09-30T03:33:52.067Z,13.40
2022-09-30T03:36:29.765Z,13.40
2022-09-30T03:39:29.640Z,13.50
2022-09-30T03:42:22.079Z,13.40
2022-09-30T03:45:12.635Z,13.40
2022-09-30T03:47:47.915Z,13.40
2022-09-30T03:50:23.558Z,13.40
2022-09-30T03:52:51.337Z,13.40
2022-09-30T03:55:22.410Z,13.50
2022-09-30T03:57:49.573Z,13.50
2022-09-30T04:00:16.729Z,13.40
2022-09-30T04:02:45.872Z,13.40
2022-09-30T04:05:15.429Z,13.40
2022-09-30T04:07:46.793Z,13.40
2022-09-30T04:10:13.696Z,13.40
2022-09-30T04:12:42.979Z,13.40
2022-09-30T04:15:11.049Z,13.40
2022-09-30T04:17:40.183Z,13.40
2022-09-30T04:20:07.312Z,13.40
2022-09-30T04:22:36.673Z,13.40
2022-09-30T04:25:03.894Z,13.40
2022-09-30T04:27:30.816Z,13.40
2022-09-30T04:30:00.679Z,13.40
2022-09-30T04:32:28.876Z,13.40
2022-09-30T04:34:55.708Z,13.40
2022-09-30T04:37:24.843Z,13.40
2022-09-30T04:39:54.172Z,13.40
2022-09-30T04:42:21.005Z,13.30
2022-09-30T04:44:48.859Z,13.40
2022-09-30T04:47:16.221Z,13.40
2022-09-30T04:49:43.050Z,13.40
2022-09-30T04:52:12.009Z,13.40
2022-09-30T04:54:39.579Z,13.30
2022-09-30T04:57:10.935Z,13.40
2022-09-30T04:59:37.722Z,13.30
2022-09-30T05:02:05.488Z,13.30
2022-09-30T05:04:33.390Z,13.30
2022-09-30T05:07:03.800Z,13.30
2022-09-30T05:09:33.296Z,13.30
2022-09-30T05:12:01.802Z,13.30
2022-09-30T05:14:29.225Z,13.30
2022-09-30T05:16:56.364Z,13.30
2022-09-30T05:19:25.932Z,13.30
2022-09-30T05:21:55.331Z,13.30
2022-09-30T05:24:27.167Z,13.30
2022-09-30T05:26:54.067Z,13.30
2022-09-30T05:29:25.639Z,13.30
2022-09-30T05:31:52.400Z,13.20
2022-09-30T05:34:19.318Z,13.10
2022-09-30T05:36:46.206Z,13.20
2022-09-30T05:39:13.009Z,13.10
2022-09-30T05:41:41.914Z,13.10
2022-09-30T05:44:09.427Z,13.10
2022-09-30T05:46:39.298Z,13.10
2022-09-30T05:49:06.179Z,13.00
2022-09-30T05:51:33.033Z,13.00
2022-09-30T05:54:02.620Z,13.00
2022-09-30T05:56:31.815Z,13.00
2022-09-30T05:58:58.614Z,12.90
2022-09-30T06:01:28.556Z,12.90
2022-09-30T06:03:57.971Z,12.90
2022-09-30T06:06:25.426Z,12.90
2022-09-30T06:08:52.616Z,12.90
2022-09-30T06:11:26.102Z,12.90
2022-09-30T06:13:53.104Z,12.90
2022-09-30T06:16:20.271Z,12.90
2022-09-30T06:18:52.071Z,13.00
2022-09-30T06:21:20.059Z,13.00
2022-09-30T06:23:46.936Z,13.00
2022-09-30T06:26:16.475Z,13.00
2022-09-30T06:28:43.952Z,13.00
2022-09-30T06:31:11.720Z,13.10
2022-09-30T06:33:38.690Z,13.00
2022-09-30T06:36:10.561Z,13.10
2022-09-30T06:38:40.494Z,13.10
2022-09-30T06:41:07.891Z,13.20
2022-09-30T06:43:46.016Z,13.20
2022-09-30T06:46:29.556Z,13.20
2022-09-30T06:49:13.574Z,13.20
2022-09-30T06:51:40.837Z,13.20
2022-09-30T06:54:09.047Z,13.20
2022-09-30T06:56:36.954Z,13.30
2022-09-30T06:59:10.661Z,13.30
2022-09-30T07:01:39.629Z,13.20
2022-09-30T07:04:10.053Z,13.30
2022-09-30T07:06:38.840Z,13.30
2022-09-30T07:09:07.805Z,13.40
2022-09-30T07:11:36.661Z,13.40
2022-09-30T07:14:07.751Z,13.40
2022-09-30T07:16:35.072Z,13.50
2022-09-30T07:19:03.769Z,13.50
2022-09-30T07:21:33.661Z,13.60
2022-09-30T07:24:05.795Z,13.60
2022-09-30T07:26:35.277Z,13.60
2022-09-30T07:29:02.450Z,13.70
2022-09-30T07:31:34.663Z,13.70
2022-09-30T07:34:06.998Z,13.80
2022-09-30T07:36:38.300Z,13.80
2022-09-30T07:39:09.609Z,13.90
2022-09-30T07:41:39.362Z,13.90
2022-09-30T07:44:14.710Z,13.90
2022-09-30T07:46:44.904Z,14.00
2022-09-30T07:49:16.103Z,14.10
2022-09-30T07:51:50.748Z,14.10
2022-09-30T07:54:22.627Z,14.20
2022-09-30T07:57:09.786Z,14.20
2022-09-30T07:59:40.891Z,14.20
2022-09-30T08:02:17.261Z,14.20
2022-09-30T08:04:45.005Z,14.30
2022-09-30T08:07:14.825Z,14.30
2022-09-30T08:09:42.105Z,14.40
2022-09-30T08:12:11.688Z,14.40
2022-09-30T08:14:38.564Z,14.50
2022-09-30T08:17:07.699Z,14.50
2022-09-30T08:19:35.614Z,14.60
2022-09-30T08:24:35.178Z,14.60
2022-09-30T08:27:07.161Z,14.60
2022-09-30T08:29:59.150Z,14.60
2022-09-30T08:32:32.808Z,14.70
2022-09-30T08:35:02.154Z,14.70
2022-09-30T08:37:29.014Z,14.80
2022-09-30T08:39:55.849Z,14.90
2022-09-30T08:42:50.502Z,15.00
2022-09-30T08:45:54.141Z,15.20
2022-09-30T08:48:42.398Z,15.30
2022-09-30T08:51:20.742Z,15.50
2022-09-30T08:53:51.502Z,15.80
2022-09-30T08:56:32.835Z,16.00
2022-09-30T08:59:21.125Z,16.10
2022-09-30T09:01:54.329Z,16.40
2022-09-30T09:04:23.827Z,16.60
2022-09-30T09:06:57.969Z,16.80
2022-09-30T09:09:35.909Z,16.90
2022-09-30T09:12:37.599Z,17.10
2022-09-30T09:15:51.974Z,17.20
2022-09-30T09:18:41.605Z,17.30
2022-09-30T09:21:21.645Z,17.40
2022-09-30T09:23:56.147Z,17.50
2022-09-30T09:26:30.159Z,17.60
2022-09-30T09:29:50.701Z,17.70
2022-09-30T09:32:18.955Z,17.70
2022-09-30T09:34:54.568Z,17.70
2022-09-30T09:38:18.337Z,17.70
2022-09-30T09:41:33.323Z,17.60
2022-09-30T09:44:11.885Z,17.70
2022-09-30T09:46:50.871Z,17.60
2022-09-30T09:49:21.115Z,17.70
2022-09-30T09:51:59.776Z,17.70
2022-09-30T09:54:33.123Z,17.70
2022-09-30T09:57:11.425Z,17.80
2022-09-30T09:59:54.642Z,17.80
2022-09-30T10:02:31.682Z,17.90
2022-09-30T10:05:03.562Z,17.90
2022-09-30T10:07:33.793Z,18.00
2022-09-30T10:10:21.096Z,18.00
2022-09-30T10:12:50.462Z,18.00
2022-09-30T10:15:26.354Z,18.10
2022-09-30T10:18:02.390Z,18.10
2022-09-30T10:20:37.249Z,18.20
2022-09-30T10:23:22.171Z,18.20
2022-09-30T10:25:59.078Z,18.20
2022-09-30T10:28:34.318Z,18.30
2022-09-30T10:31:08.078Z,18.30
2022-09-30T10:33:47.415Z,18.40
2022-09-30T10:36:21.394Z,18.50
2022-09-30T10:39:19.792Z,18.60
2022-09-30T10:41:48.901Z,18.70
2022-09-30T10:44:25.870Z,18.90
2022-09-30T10:47:02.493Z,19.10
2022-09-30T10:49:45.790Z,19.30
2022-09-30T10:52:25.018Z,19.50
2022-09-30T10:54:57.182Z,19.70
2022-09-30T10:57:28.838Z,19.80
2022-09-30T11:00:06.476Z,19.90
2022-09-30T11:02:53.997Z,20.00
2022-09-30T11:05:31.405Z,20.00
2022-09-30T11:08:35.465Z,20.00
2022-09-30T11:11:14.567Z,20.00
2022-09-30T11:14:19.675Z,20.00
2022-09-30T11:17:22.412Z,20.00
2022-09-30T11:20:39.533Z,19.80
2022-09-30T11:23:14.649Z,19.70
2022-09-30T11:26:20.770Z,19.60
2022-09-30T11:29:13.535Z,19.50
2022-09-30T11:32:01.815Z,19.40
2022-09-30T11:34:54.677Z,19.40
2022-09-30T11:37:46.840Z,19.40
2022-09-30T11:40:42.138Z,19.50
2022-09-30T11:43:50.633Z,19.60
2022-09-30T11:47:06.107Z,19.70
2022-09-30T11:50:09.655Z,19.70
2022-09-30T11:53:10.198Z,19.80
2022-09-30T11:56:01.338Z,19.80
2022-09-30T11:58:49.175Z,19.90
2022-09-30T12:01:28.986Z,19.90
2022-09-30T12:04:11.747Z,19.90
2022-09-30T12:06:51.405Z,20.00
2022-09-30T12:09:34.855Z,20.00
2022-09-30T12:12:12.445Z,20.00
2022-09-30T12:14:50.134Z,20.10
2022-09-30T12:17:44.105Z,20.20
2022-09-30T12:20:27.923Z,20.20
2022-09-30T12:23:05.926Z,20.30
2022-09-30T12:25:44.251Z,20.30
2022-09-30T12:28:54.389Z,20.40
2022-09-30T12:32:03.547Z,20.30
2022-09-30T12:35:09.626Z,20.20
2022-09-30T12:38:25.769Z,20.00
2022-09-30T12:41:29.102Z,19.90
2022-09-30T12:44:52.602Z,19.70
2022-09-30T12:47:30.409Z,19.70
2022-09-30T12:50:00.887Z,19.70
2022-09-30T12:52:35.942Z,19.60
2022-09-30T12:55:13.854Z,19.60
2022-09-30T12:57:43.813Z,19.60
2022-09-30T13:00:18.403Z,19.60
2022-09-30T13:02:54.173Z,19.50
2022-09-30T13:05:26.817Z,19.50
2022-09-30T13:08:05.855Z,19.40
2022-09-30T13:10:38.836Z,19.40
2022-09-30T13:13:24.604Z,19.40
2022-09-30T13:16:02.911Z,19.50
2022-09-30T13:18:33.007Z,19.40
2022-09-30T13:21:06.685Z,19.50
2022-09-30T13:23:45.310Z,19.40
2022-09-30T13:26:33.440Z,19.40
2022-09-30T13:29:00.654Z,19.40
2022-09-30T13:31:32.210Z,19.40
2022-09-30T13:34:02.238Z,19.40
2022-09-30T13:36:39.768Z,19.40
2022-09-30T13:39:45.733Z,19.40
2022-09-30T13:42:29.862Z,19.30
2022-09-30T13:45:22.090Z,19.30
2022-09-30T13:47:53.402Z,19.40
2022-09-30T13:50:47.128Z,19.40
2022-09-30T13:53:26.802Z,19.40
2022-09-30T13:55:55.862Z,19.50
2022-09-30T13:59:00.300Z,19.50
2022-09-30T14:01:39.107Z,19.60
2022-09-30T14:04:35.714Z,19.60
2022-09-30T14:07:20.162Z,19.60
2022-09-30T14:10:24.913Z,19.60
2022-09-30T14:13:52.023Z,19.60
2022-09-30T14:16:54.458Z,19.60
2022-09-30T14:19:35.344Z,19.60
2022-09-30T14:22:12.163Z,19.50
2022-09-30T14:24:42.794Z,19.60
2022-09-30T14:27:33.238Z,19.50
2022-09-30T14:30:15.280Z,19.50
2022-09-30T14:32:50.485Z,19.40
2022-09-30T14:35:32.473Z,19.30
2022-09-30T14:38:07.889Z,19.20
2022-09-30T14:40:40.226Z,19.20
2022-09-30T14:43:14.536Z,19.10
2022-09-30T14:45:46.024Z,19.10
2022-09-30T14:48:21.722Z,19.00
2022-09-30T14:51:07.833Z,18.80
2022-09-30T14:53:39.708Z,18.90
2022-09-30T14:56:21.928Z,18.90
2022-09-30T14:58:53.132Z,18.80
2022-09-30T15:01:23.251Z,18.80
2022-09-30T15:04:27.425Z,18.70
2022-09-30T15:06:55.357Z,18.70
2022-09-30T15:09:39.060Z,18.60
2022-09-30T15:12:15.135Z,18.60
2022-09-30T15:14:56.575Z,18.50
2022-09-30T15:17:37.970Z,18.40
2022-09-30T15:20:30.512Z,18.40
2022-09-30T15:23:03.167Z,18.30
2022-09-30T15:25:31.191Z,18.30
2022-09-30T15:28:01.222Z,18.30
2022-09-30T15:30:29.471Z,18.20
2022-09-30T15:33:04.964Z,18.20
2022-09-30T15:35:35.952Z,18.10
2022-09-30T15:38:23.607Z,18.00
2022-09-30T15:41:11.494Z,17.90
2022-09-30T15:43:43.960Z,17.80
2022-09-30T15:46:27.405Z,17.70
2022-09-30T15:49:02.881Z,17.70
2022-09-30T15:51:32.472Z,17.60
2022-09-30T15:54:05.428Z,17.60
2022-09-30T15:56:39.727Z,17.60
2022-09-30T15:59:11.585Z,17.60
2022-09-30T16:01:50.290Z,17.50
2022-09-30T16:04:19.102Z,17.50
2022-09-30T16:07:19.181Z,17.50
2022-09-30T16:09:51.119Z,17.40
2022-09-30T16:12:26.670Z,17.30
2022-09-30T16:14:57.507Z,17.30
2022-09-30T16:17:27.138Z,17.30
2022-09-30T16:20:00.529Z,17.30
2022-09-30T16:22:50.340Z,17.20
2022-09-30T16:25:17.259Z,17.20
2022-09-30T16:27:46.736Z,17.20
2022-09-30T16:30:17.764Z,17.20
2022-09-30T16:32:53.196Z,17.20
2022-09-30T16:35:25.583Z,17.20
2022-09-30T16:38:05.065Z,17.20
2022-09-30T16:40:39.097Z,17.10
2022-09-30T16:43:07.930Z,17.10
2022-09-30T16:45:35.512Z,17.10
2022-09-30T16:48:17.030Z,17.10
2022-09-30T16:51:08.602Z,17.00
2022-09-30T16:53:40.214Z,17.00
2022-09-30T16:56:14.459Z,16.90
2022-09-30T16:58:42.663Z,16.90
2022-09-30T17:01:25.450Z,16.90
2022-09-30T17:03:57.260Z,16.80
2022-09-30T17:06:32.679Z,16.80
2022-09-30T17:09:03.688Z,16.70
2022-09-30T17:11:33.612Z,16.70
2022-09-30T17:14:03.475Z,16.60
2022-09-30T17:19:15.532Z,16.60
2022-09-30T17:21:45.005Z,16.60
2022-09-30T17:24:12.309Z,16.50
2022-09-30T17:26:39.241Z,16.50
2022-09-30T17:29:31.033Z,16.60
2022-09-30T17:31:57.744Z,16.50
2022-09-30T17:34:27.899Z,16.50
2022-09-30T17:36:56.221Z,16.50
2022-09-30T17:39:27.843Z,16.50
2022-09-30T17:42:13.013Z,16.40
2022-09-30T17:44:44.345Z,16.30
2022-09-30T17:47:11.294Z,16.30
2022-09-30T17:49:40.667Z,16.30
2022-09-30T17:52:14.455Z,16.40
2022-09-30T17:54:48.622Z,16.40
2022-09-30T17:57:18.987Z,16.40
2022-09-30T17:59:46.976Z,16.40
2022-09-30T18:02:17.308Z,16.40
2022-09-30T18:04:44.613Z,16.40
2022-09-30T18:07:13.599Z,16.40
2022-09-30T18:09:42.184Z,16.40
2022-09-30T18:12:12.205Z,16.30
2022-09-30T18:14:43.765Z,16.30
2022-09-30T18:17:10.691Z,16.30
2022-09-30T18:19:37.569Z,16.10
2022-09-30T18:22:06.863Z,16.30
2022-09-30T18:24:54.765Z,16.30
2022-09-30T18:27:25.917Z,16.30
2022-09-30T18:29:56.400Z,16.20
2022-09-30T18:32:23.341Z,16.20
2022-09-30T18:34:50.311Z,16.20
2022-09-30T18:37:17.326Z,16.10
2022-09-30T18:39:49.295Z,16.10
2022-09-30T18:42:20.075Z,16.10
2022-09-30T18:44:51.035Z,16.10
2022-09-30T18:47:22.474Z,16.10
2022-09-30T18:49:57.790Z,16.00
2022-09-30T18:55:15.135Z,16.00
2022-09-30T18:57:51.462Z,15.90
2022-09-30T19:00:21.884Z,15.90
2022-09-30T19:03:06.325Z,15.80
2022-09-30T19:05:43.198Z,15.80
2022-09-30T19:08:13.148Z,15.70
2022-09-30T19:10:48.405Z,15.70
2022-09-30T19:16:22.255Z,15.50
2022-09-30T19:18:51.634Z,15.50
2022-09-30T19:21:34.721Z,15.40
2022-09-30T19:24:04.507Z,15.40
2022-09-30T19:26:39.569Z,15.30
2022-09-30T19:29:09.987Z,15.30
2022-09-30T19:31:37.637Z,15.20
2022-09-30T19:34:05.365Z,15.20
2022-09-30T19:36:44.596Z,15.20
2022-09-30T19:39:19.250Z,15.10
2022-09-30T19:41:47.341Z,15.10
2022-09-30T19:44:19.983Z,15.10
2022-09-30T19:46:51.677Z,15.10
2022-09-30T19:49:21.262Z,15.10
2022-09-30T19:51:53.117Z,15.00
2022-09-30T19:54:35.152Z,15.00
2022-09-30T19:57:05.176Z,15.00
2022-09-30T19:59:34.204Z,15.00
2022-09-30T20:02:03.917Z,15.00
2022-09-30T20:04:31.566Z,15.00
2022-09-30T20:07:00.854Z,15.00
2022-09-30T20:09:30.375Z,15.00
2022-09-30T20:11:59.370Z,15.00
2022-09-30T20:14:44.808Z,15.00
2022-09-30T20:17:12.599Z,15.00
2022-09-30T20:19:44.205Z,15.00
2022-09-30T20:22:11.470Z,15.00
2022-09-30T20:24:39.580Z,14.80
2022-09-30T20:27:06.601Z,14.90
2022-09-30T20:29:33.591Z,14.90
2022-09-30T20:32:05.862Z,14.90
2022-09-30T20:34:38.681Z,14.90
2022-09-30T20:37:06.009Z,14.90
2022-09-30T20:39:34.523Z,14.90
2022-09-30T20:42:01.390Z,14.80
2022-09-30T20:44:28.240Z,14.80
2022-09-30T20:46:58.290Z,14.80
2022-09-30T20:49:30.645Z,14.70
2022-09-30T20:51:57.509Z,14.70
2022-09-30T20:54:24.838Z,14.70
2022-09-30T20:57:06.654Z,14.70
2022-09-30T20:59:33.981Z,14.60
2022-09-30T21:02:00.888Z,14.60
2022-09-30T21:04:30.122Z,14.50
2022-09-30T21:06:56.963Z,14.50
2022-09-30T21:09:23.812Z,14.50
2022-09-30T21:11:50.647Z,14.50
2022-09-30T21:14:20.681Z,14.50
2022-09-30T21:16:49.680Z,14.50
2022-09-30T21:19:18.934Z,14.40
2022-09-30T21:21:45.788Z,14.40
2022-09-30T21:24:19.696Z,14.40
2022-09-30T21:26:51.768Z,14.40
2022-09-30T21:29:22.815Z,14.40
2022-09-30T21:31:49.870Z,14.30
2022-09-30T21:34:16.766Z,14.20
2022-09-30T21:36:43.727Z,14.20
2022-09-30T21:39:14.215Z,14.20
2022-09-30T21:41:41.184Z,14.20
2022-09-30T21:44:08.068Z,14.10
2022-09-30T21:46:35.662Z,14.10
2022-09-30T21:49:20.277Z,14.10
2022-09-30T21:51:47.440Z,14.00
2022-09-30T21:54:19.225Z,14.00
2022-09-30T21:56:46.197Z,14.00
2022-09-30T21:59:17.493Z,14.00
2022-09-30T22:01:46.718Z,13.90
2022-09-30T22:04:16.251Z,13.90
2022-09-30T22:06:45.354Z,13.90
2022-09-30T22:09:14.800Z,13.90
2022-09-30T22:11:43.783Z,13.90
2022-09-30T22:14:11.660Z,13.90
2022-09-30T22:16:40.882Z,13.90
2022-09-30T22:19:09.027Z,13.90
2022-09-30T22:21:41.385Z,13.90
2022-09-30T22:24:13.785Z,13.90
2022-09-30T22:26:45.684Z,13.90
2022-09-30T22:29:12.526Z,13.90
2022-09-30T22:31:42.565Z,13.90
2022-09-30T22:34:33.710Z,13.80
2022-09-30T22:40:13.146Z,13.80
2022-09-30T22:42:40.069Z,13.80
2022-09-30T22:45:09.945Z,13.80
2022-09-30T22:47:36.797Z,13.80
2022-09-30T22:50:04.241Z,13.80
2022-09-30T22:52:31.951Z,13.80
2022-09-30T22:54:58.810Z,13.80
2022-09-30T22:57:28.303Z,13.70
2022-09-30T22:59:56.404Z,13.70
2022-09-30T23:02:23.317Z,13.80
2022-09-30T23:04:51.614Z,13.70
2022-09-30T23:07:20.631Z,13.70
2022-09-30T23:09:47.455Z,13.80
2022-09-30T23:12:18.935Z,13.70
2022-09-30T23:14:45.785Z,13.70
2022-09-30T23:17:15.696Z,13.70
2022-09-30T23:19:42.512Z,13.70
2022-09-30T23:22:09.913Z,13.70
2022-09-30T23:24:36.769Z,13.70
2022-09-30T23:27:03.656Z,13.70
2022-09-30T23:29:35.213Z,13.70
2022-09-30T23:32:04.299Z,13.70
2022-09-30T23:34:35.776Z,13.50
2022-09-30T23:37:04.690Z,13.70
2022-09-30T23:39:31.743Z,13.70
2022-09-30T23:42:03.581Z,13.70
2022-09-30T23:44:35.241Z,13.70
2022-09-30T23:47:20.801Z,13.60
2022-09-30T23:49:47.959Z,13.50
2022-09-30T23:52:15.080Z,13.60
2022-09-30T23:54:44.903Z,13.60
2022-09-30T23:57:14.633Z,13.60
2022-09-30T23:59:44.012Z,13.60
